Time;durP1;ratioP1;P1;durP2;ratioP2;P2;SDS_P1;SDS_P2;PMS_P1;PMS_P2;Temp;Humidity;BMP_temperature;BMP_pressure;BME280_temperature;BME280_humidity;BME280_pressure;Samples;Min_cycle;Max_cycle;Signal;HPM_P1;HPM_P2
2021/08/10 00:02:13;;;;;;;6.25;3.47;;;;;;;16.01;94.80;101099.53;4987822;28;20227;-84
2021/08/10 00:04:38;;;;;;;6.72;3.20;;;;;;;15.98;95.24;101095.34;4986556;28;20062;-81
2021/08/10 00:07:03;;;;;;;7.22;3.42;;;;;;;15.98;95.03;101102.63;4987696;28;20042;-82
2021/08/10 00:09:29;;;;;;;8.88;3.80;;;;;;;15.99;94.63;101098.88;4983602;28;20045;-82
2021/08/10 00:11:57;;;;;;;6.68;3.90;;;;;;;16.00;94.45;101096.00;4958127;28;20054;-81
2021/08/10 00:14:23;;;;;;;8.35;3.53;;;;;;;15.94;95.02;101094.06;4979570;28;20368;-81
2021/08/10 00:16:48;;;;;;;6.38;3.42;;;;;;;15.88;96.11;101100.25;4982734;28;20101;-81
2021/08/10 00:19:14;;;;;;;6.70;3.85;;;;;;;15.87;95.47;101095.00;4993637;28;20083;-83
2021/08/10 00:21:39;;;;;;;7.10;4.25;;;;;;;15.84;95.79;101090.81;4981860;28;20152;-83
2021/08/10 00:24:05;;;;;;;7.53;3.90;;;;;;;15.80;95.95;101094.94;4964990;28;20511;-81
2021/08/10 00:26:30;;;;;;;10.50;4.60;;;;;;;15.78;96.58;101091.56;4970259;28;20034;-84
2021/08/10 00:28:56;;;;;;;7.63;4.57;;;;;;;15.74;96.40;101084.88;4980978;28;20515;-81
2021/08/10 00:31:21;;;;;;;7.85;4.70;;;;;;;15.74;95.98;101085.72;4979706;28;20499;-85
2021/08/10 00:33:48;;;;;;;8.60;4.43;;;;;;;15.73;96.24;101091.31;4978210;28;20050;-83
2021/08/10 00:36:13;;;;;;;6.85;4.95;;;;;;;15.70;95.76;101080.88;4979943;28;20478;-81
2021/08/10 00:38:40;;;;;;;8.80;5.03;;;;;;;15.69;96.38;101084.63;4981426;28;20121;-83
2021/08/10 00:41:06;;;;;;;8.18;5.00;;;;;;;15.62;97.28;101080.94;4980202;28;20069;-82
2021/08/10 00:43:39;;;;;;;7.30;4.30;;;;;;;15.57;97.27;101079.66;4982249;28;20080;-81
2021/08/10 00:46:08;;;;;;;6.68;4.72;;;;;;;15.60;96.97;101077.63;4986832;28;20129;-82
2021/08/10 00:48:35;;;;;;;8.07;5.03;;;;;;;15.55;96.97;101076.31;4983335;28;20106;-82
2021/08/10 00:51:03;;;;;;;6.43;4.30;;;;;;;15.52;98.02;101083.97;4985682;28;22311;-82
2021/08/10 00:53:29;;;;;;;8.52;4.50;;;;;;;15.50;97.54;101084.13;4983361;28;20039;-84
2021/08/10 00:55:55;;;;;;;8.93;4.72;;;;;;;15.50;97.60;101086.84;4981946;28;20059;-82
2021/08/10 00:58:21;;;;;;;11.10;5.53;;;;;;;15.44;99.17;101089.47;4981889;28;20076;-84
2021/08/10 01:00:47;;;;;;;6.53;4.97;;;;;;;15.42;97.89;101086.97;4994161;28;20038;-84
2021/08/10 01:03:13;;;;;;;10.13;5.18;;;;;;;15.41;98.51;101085.28;4980527;28;20372;-82
2021/08/10 01:05:44;;;;;;;7.93;4.93;;;;;;;15.40;98.47;101086.31;4979529;28;20092;-84
2021/08/10 01:08:34;;;;;;;6.47;4.63;;;;;;;15.41;98.76;101087.97;4981759;28;20498;-82
2021/08/10 01:11:13;;;;;;;11.02;5.88;;;;;;;15.36;99.21;101082.28;4981019;28;20120;-81
2021/08/10 01:13:47;;;;;;;11.85;5.40;;;;;;;15.36;99.41;101082.28;4984903;28;20045;-84
2021/08/10 01:16:40;;;;;;;13.10;6.55;;;;;;;15.35;99.15;101075.22;5015351;28;20042;-81
2021/08/10 01:19:43;;;;;;;9.07;5.65;;;;;;;15.33;99.68;101074.56;4996143;28;20677;-82
2021/08/10 01:22:11;;;;;;;9.68;5.93;;;;;;;15.27;99.98;101078.84;4988269;28;20041;-84
2021/08/10 01:24:54;;;;;;;10.68;5.70;;;;;;;15.28;100.00;101075.16;4979962;28;20423;-82
2021/08/10 01:27:41;;;;;;;11.40;6.22;;;;;;;15.26;100.00;101068.25;4987667;28;20046;-81
2021/08/10 01:30:17;;;;;;;8.32;6.07;;;;;;;15.25;100.00;101064.72;5002759;28;20774;-81
2021/08/10 01:32:46;;;;;;;11.68;6.78;;;;;;;15.25;100.00;101069.28;4986811;28;20073;-81
2021/08/10 01:35:14;;;;;;;12.15;6.80;;;;;;;15.23;100.00;101061.34;4987960;28;20102;-82
2021/08/10 01:37:42;;;;;;;10.77;6.63;;;;;;;15.20;100.00;101055.50;4984394;28;20499;-84
2021/08/10 01:40:12;;;;;;;11.00;6.10;;;;;;;15.21;100.00;101049.03;4986701;28;20066;-83
2021/08/10 01:42:39;;;;;;;10.73;7.32;;;;;;;15.18;100.00;101052.97;4987065;28;20045;-83
2021/08/10 01:45:06;;;;;;;11.60;7.50;;;;;;;15.13;100.00;101060.78;4985578;28;20038;-83
2021/08/10 01:47:33;;;;;;;15.10;9.07;;;;;;;15.15;100.00;101060.63;4986659;28;20491;-83
2021/08/10 01:50:00;;;;;;;15.40;10.40;;;;;;;15.17;100.00;101061.28;4986713;28;20054;-81
2021/08/10 01:52:27;;;;;;;13.77;9.38;;;;;;;15.14;100.00;101056.25;4986968;28;20031;-83
2021/08/10 01:54:54;;;;;;;12.93;9.50;;;;;;;15.15;100.00;101055.22;4987200;28;20046;-82
2021/08/10 01:57:20;;;;;;;13.13;8.60;;;;;;;15.11;100.00;101050.19;4969326;28;20038;-81
2021/08/10 01:59:48;;;;;;;13.35;8.68;;;;;;;15.10;100.00;101056.63;4984670;28;20027;-82
2021/08/10 02:02:14;;;;;;;15.50;9.07;;;;;;;15.09;100.00;101054.91;4985422;28;20077;-83
2021/08/10 02:04:41;;;;;;;14.30;9.20;;;;;;;15.10;100.00;101056.63;4986934;28;20447;-82
2021/08/10 02:07:06;;;;;;;13.77;9.18;;;;;;;15.10;100.00;101051.22;5002170;28;20038;-82
2021/08/10 02:09:34;;;;;;;14.07;9.32;;;;;;;15.08;100.00;101061.38;4986315;28;20046;-82
2021/08/10 02:12:01;;;;;;;14.05;8.50;;;;;;;15.08;100.00;101053.25;4983671;28;20410;-84
2021/08/10 02:14:27;;;;;;;16.67;9.20;;;;;;;15.03;100.00;101058.38;4985447;28;20092;-83
2021/08/10 02:16:56;;;;;;;13.57;8.25;;;;;;;15.04;100.00;101049.22;5000522;28;20563;-83
2021/08/10 02:19:22;;;;;;;;;;;;;;;15.04;100.00;101051.09;4972173;28;20053;-83
2021/08/10 02:21:50;;;;;;;14.32;9.05;;;;;;;14.97;100.00;101061.84;4984320;28;20298;-81
2021/08/10 02:24:23;;;;;;;11.35;8.35;;;;;;;14.99;100.00;101061.63;4986304;28;20097;-83
2021/08/10 02:26:54;;;;;;;11.93;8.10;;;;;;;15.02;100.00;101069.41;4986174;28;20511;-82
2021/08/10 02:29:20;;;;;;;12.75;8.98;;;;;;;15.02;100.00;101072.94;4985339;28;20050;-84
2021/08/10 02:31:47;;;;;;;14.50;8.60;;;;;;;15.04;100.00;101065.44;4985759;28;20117;-84
2021/08/10 02:34:17;;;;;;;14.43;7.95;;;;;;;15.04;100.00;101075.44;4983903;28;20042;-81
2021/08/10 02:36:42;;;;;;;15.50;8.65;;;;;;;15.02;100.00;101075.63;4986318;28;20034;-83
2021/08/10 02:39:09;;;;;;;13.38;9.30;;;;;;;15.03;100.00;101080.00;4987233;28;20513;-83
2021/08/10 02:41:38;;;;;;;16.35;8.13;;;;;;;15.04;100.00;101076.25;4986798;28;20042;-82
2021/08/10 02:44:05;;;;;;;14.80;8.02;;;;;;;15.03;100.00;101074.59;4985275;28;20448;-83
2021/08/10 02:46:31;;;;;;;13.02;8.38;;;;;;;15.02;100.00;101070.22;4985284;28;20523;-82
2021/08/10 02:48:57;;;;;;;13.60;8.20;;;;;;;15.07;100.00;101065.06;4986688;28;20089;-81
2021/08/10 02:51:22;;;;;;;15.68;8.77;;;;;;;15.04;100.00;101054.63;4985575;28;20042;-82
2021/08/10 02:53:48;;;;;;;12.52;7.82;;;;;;;15.03;100.00;101066.47;4982689;28;20053;-82
2021/08/10 02:56:21;;;;;;;14.85;8.75;;;;;;;15.01;100.00;101056.88;4968977;28;20133;-83
2021/08/10 02:59:48;;;;;;;16.90;8.73;;;;;;;15.02;100.00;101048.59;4985789;28;20053;-82
2021/08/10 03:02:19;;;;;;;15.43;9.23;;;;;;;15.03;100.00;101034.06;4958197;28;20046;-81
2021/08/10 03:04:48;;;;;;;13.55;8.48;;;;;;;15.00;100.00;101039.84;4982521;28;20108;-81
2021/08/10 03:07:15;;;;;;;;;;;;;;;15.04;100.00;101043.00;4975708;28;20039;-81
2021/08/10 03:09:40;;;;;;;13.57;8.65;;;;;;;14.99;100.00;101051.69;5001024;28;19925;-83
2021/08/10 03:12:08;;;;;;;11.88;8.52;;;;;;;14.96;100.00;101057.47;4986943;28;20399;-81
2021/08/10 03:14:35;;;;;;;13.52;8.98;;;;;;;14.98;100.00;101055.38;4990411;28;20042;-82
2021/08/10 03:17:06;;;;;;;14.15;8.75;;;;;;;15.02;100.00;101054.00;5019285;28;20065;-84
2021/08/10 03:19:34;;;;;;;15.35;9.65;;;;;;;15.05;100.00;101053.63;5005512;28;20046;-83
2021/08/10 03:22:00;;;;;;;15.43;8.05;;;;;;;15.03;100.00;101052.97;4988208;28;20045;-82
2021/08/10 03:24:26;;;;;;;12.85;8.52;;;;;;;15.02;100.00;101045.91;4990210;28;20038;-81
2021/08/10 03:26:54;;;;;;;12.70;8.20;;;;;;;15.08;100.00;101045.16;4988236;28;20045;-82
2021/08/10 03:29:23;;;;;;;13.68;9.38;;;;;;;15.08;100.00;101031.63;4979839;28;20042;-81
2021/08/10 03:31:50;;;;;;;13.35;8.57;;;;;;;15.07;100.00;101027.22;4983109;28;20069;-83
2021/08/10 03:34:18;;;;;;;14.25;7.50;;;;;;;15.04;100.00;101041.13;4982044;28;20182;-82
2021/08/10 03:36:45;;;;;;;16.75;8.70;;;;;;;15.05;100.00;101047.41;4982920;28;20046;-83
2021/08/10 03:39:11;;;;;;;12.60;9.23;;;;;;;15.01;100.00;101056.88;4981652;28;20551;-82
2021/08/10 03:41:38;;;;;;;15.10;8.50;;;;;;;15.06;100.00;101049.06;4982943;28;20069;-82
2021/08/10 03:44:04;;;;;;;15.07;9.80;;;;;;;15.05;100.00;101048.22;4980849;28;20051;-83
2021/08/10 03:46:31;;;;;;;14.18;9.98;;;;;;;15.02;100.00;101054.00;4979476;28;20056;-84
2021/08/10 03:48:57;;;;;;;13.68;9.30;;;;;;;15.02;100.00;101067.53;4981624;28;20312;-83
2021/08/10 03:51:23;;;;;;;15.63;9.90;;;;;;;15.02;100.00;101059.41;4981388;28;20044;-82
2021/08/10 03:53:49;;;;;;;16.35;9.57;;;;;;;14.99;100.00;101065.19;4995344;28;20046;-82
2021/08/10 03:56:16;;;;;;;14.00;9.20;;;;;;;14.93;100.00;101055.09;4979365;28;20046;-81
2021/08/10 03:58:45;;;;;;;13.95;9.88;;;;;;;14.91;100.00;101064.44;4980661;28;20042;-83
2021/08/10 04:01:12;;;;;;;13.20;9.88;;;;;;;14.87;100.00;101059.41;4980793;28;20052;-83
2021/08/10 04:03:38;;;;;;;15.50;10.10;;;;;;;14.84;100.00;101065.16;4980811;28;20574;-84
2021/08/10 04:06:06;;;;;;;15.95;11.55;;;;;;;14.87;100.00;101074.75;4978122;28;20054;-81
2021/08/10 04:08:33;;;;;;;14.63;10.68;;;;;;;14.88;100.00;101074.59;4977524;28;20069;-82
2021/08/10 04:10:58;;;;;;;14.20;10.85;;;;;;;14.90;100.00;101079.78;4978991;28;20128;-83
2021/08/10 04:13:24;;;;;;;15.55;11.50;;;;;;;14.89;100.00;101070.03;4977281;28;20487;-83
2021/08/10 04:15:51;;;;;;;14.27;10.63;;;;;;;14.86;100.00;101059.59;4976721;28;20062;-84
2021/08/10 04:18:23;;;;;;;15.88;10.30;;;;;;;14.85;100.00;101057.94;4964224;28;20133;-83
2021/08/10 04:20:52;;;;;;;15.50;10.13;;;;;;;14.90;100.00;101071.69;4978514;28;20038;-83
2021/08/10 04:23:19;;;;;;;14.30;10.07;;;;;;;14.92;100.00;101069.66;4982342;28;20046;-84
2021/08/10 04:25:44;;;;;;;15.10;10.35;;;;;;;14.93;100.00;101063.22;4977169;28;20483;-81
2021/08/10 04:28:10;;;;;;;12.93;9.27;;;;;;;14.93;100.00;101065.91;4982662;28;20054;-81
2021/08/10 04:30:37;;;;;;;13.48;9.65;;;;;;;14.93;100.00;101055.09;4979699;28;20376;-85
2021/08/10 04:33:03;;;;;;;12.98;8.98;;;;;;;14.94;100.00;101070.31;4979086;28;20035;-82
2021/08/10 04:35:28;;;;;;;16.77;9.45;;;;;;;14.91;100.00;101067.16;4978239;28;20090;-80
2021/08/10 04:37:54;;;;;;;15.02;9.50;;;;;;;14.87;100.00;101078.34;4979014;28;20087;-81
2021/08/10 04:40:19;;;;;;;15.57;9.98;;;;;;;14.87;100.00;101074.75;4979058;28;20499;-83
2021/08/10 04:42:45;;;;;;;11.77;8.55;;;;;;;14.87;100.00;101082.88;4978102;28;20045;-80
2021/08/10 04:45:11;;;;;;;15.73;9.80;;;;;;;14.88;100.00;101084.56;4984229;28;20034;-83
2021/08/10 04:47:36;;;;;;;13.77;9.15;;;;;;;14.88;100.00;101084.56;4979909;28;20039;-84
2021/08/10 04:50:03;;;;;;;16.13;9.13;;;;;;;14.87;100.00;101081.03;4980337;28;20530;-83
2021/08/10 04:52:28;;;;;;;12.68;8.90;;;;;;;14.86;100.00;101083.91;4980872;28;20049;-82
2021/08/10 04:54:57;;;;;;;10.63;7.88;;;;;;;14.85;100.00;101084.94;4980698;28;20047;-82
2021/08/10 04:57:22;;;;;;;15.23;8.73;;;;;;;14.84;100.00;101091.34;4971081;28;20396;-83
2021/08/10 04:59:50;;;;;;;14.45;8.43;;;;;;;14.81;100.00;101086.31;4955521;28;20683;-82
2021/08/10 05:02:15;;;;;;;11.57;8.25;;;;;;;14.82;100.00;101096.97;4964307;28;20043;-82
2021/08/10 05:04:42;;;;;;;12.43;7.85;;;;;;;14.82;100.00;101101.53;4940153;28;1140029;-83
2021/08/10 05:07:08;;;;;;;12.85;8.02;;;;;;;14.78;100.00;101101.03;4995508;28;20042;-83
2021/08/10 05:09:33;;;;;;;13.57;7.28;;;;;;;14.76;100.00;101092.28;4980367;28;20100;-81
2021/08/10 05:12:00;;;;;;;13.55;7.45;;;;;;;14.76;100.00;101092.28;4976364;28;21365;-82
2021/08/10 05:14:26;;;;;;;14.55;7.57;;;;;;;14.76;100.00;101096.84;4978740;28;20046;-81
2021/08/10 05:16:51;;;;;;;13.23;7.35;;;;;;;14.78;100.00;101089.41;4981376;28;20039;-83
2021/08/10 05:19:17;;;;;;;13.38;7.50;;;;;;;14.78;100.00;101089.41;4998184;28;20047;-83
2021/08/10 05:21:43;;;;;;;14.82;7.45;;;;;;;14.76;100.00;101091.44;5006798;28;20089;-83
2021/08/10 05:24:09;;;;;;;11.00;6.65;;;;;;;14.74;100.00;101096.19;4995019;28;20051;-83
2021/08/10 05:26:34;;;;;;;9.88;6.63;;;;;;;14.78;100.00;101095.63;4983190;28;20050;-81
2021/08/10 05:29:00;;;;;;;11.50;7.18;;;;;;;14.80;100.00;101103.56;4986492;28;20415;-82
2021/08/10 05:31:26;;;;;;;11.90;7.97;;;;;;;14.80;100.00;101100.88;4985164;28;20031;-83
2021/08/10 05:33:51;;;;;;;10.93;6.90;;;;;;;14.80;100.00;101099.00;4983937;28;20475;-81
2021/08/10 05:36:19;;;;;;;12.30;6.97;;;;;;;14.79;100.00;101102.72;4983503;28;20061;-81
2021/08/10 05:38:49;;;;;;;13.05;7.03;;;;;;;14.75;100.00;101104.09;4982584;28;20526;-83
2021/08/10 05:41:14;;;;;;;12.27;6.22;;;;;;;14.77;100.00;101107.47;4978510;28;20385;-82
2021/08/10 05:43:41;;;;;;;10.55;6.72;;;;;;;14.79;100.00;101101.91;4981255;28;20045;-80
2021/08/10 05:46:06;;;;;;;9.30;6.70;;;;;;;14.82;100.00;101106.94;4977683;28;20046;-84
2021/08/10 05:48:31;;;;;;;10.38;6.95;;;;;;;14.90;100.00;101090.59;4980393;28;20046;-83
2021/08/10 05:50:58;;;;;;;10.98;5.72;;;;;;;14.95;100.00;101108.97;4979880;28;20050;-80
2021/08/10 05:53:23;;;;;;;8.73;5.35;;;;;;;15.00;100.00;101109.28;4978478;28;20058;-82
2021/08/10 05:55:48;;;;;;;9.73;5.30;;;;;;;15.04;100.00;101100.59;4979972;28;20061;-81
2021/08/10 05:58:14;;;;;;;7.20;4.07;;;;;;;15.09;99.45;101100.88;4978311;28;20050;-80
2021/08/10 06:00:39;;;;;;;10.45;5.15;;;;;;;15.16;99.43;101114.47;4967392;28;20170;-82
2021/08/10 06:03:05;;;;;;;7.63;4.00;;;;;;;15.23;98.52;101109.19;4980638;28;20125;-79
2021/08/10 06:05:30;;;;;;;8.73;4.22;;;;;;;15.30;97.16;101110.09;4992407;28;20653;-83
2021/08/10 06:07:55;;;;;;;7.80;4.68;;;;;;;15.38;96.28;101114.56;4975819;28;20046;-80
2021/08/10 06:10:21;;;;;;;7.95;4.20;;;;;;;15.45;96.49;101113.63;4978921;28;20511;-83
2021/08/10 06:12:46;;;;;;;8.18;4.20;;;;;;;15.48;95.10;101109.72;4979448;28;20088;-83
2021/08/10 06:15:12;;;;;;;5.57;3.20;;;;;;;15.50;94.05;101116.59;4981475;28;20093;-81
2021/08/10 06:17:37;;;;;;;6.43;3.92;;;;;;;15.52;93.91;101119.97;4978773;28;20054;-79
2021/08/10 06:20:04;;;;;;;7.25;3.72;;;;;;;15.51;93.57;101122.88;4979494;28;20047;-79
2021/08/10 06:22:29;;;;;;;7.68;3.50;;;;;;;15.48;93.86;101124.09;4994231;28;20050;-85
2021/08/10 06:24:55;;;;;;;6.32;3.40;;;;;;;15.52;93.46;101130.78;4981260;28;20053;-79
2021/08/10 06:27:22;;;;;;;6.95;3.65;;;;;;;15.60;93.26;101131.72;4979762;28;20500;-80
2021/08/10 06:29:48;;;;;;;6.97;3.90;;;;;;;15.63;92.46;101132.16;4978612;28;20507;-80
2021/08/10 06:32:13;;;;;;;7.13;3.85;;;;;;;15.69;92.10;101120.63;4980375;28;20046;-81
2021/08/10 06:34:39;;;;;;;7.22;3.63;;;;;;;15.76;92.26;101134.22;4962003;28;20035;-84
2021/08/10 06:37:04;;;;;;;7.40;4.03;;;;;;;15.80;91.24;101138.22;4959142;28;20058;-81
2021/08/10 06:39:29;;;;;;;8.27;4.20;;;;;;;15.87;91.12;101136.44;4960560;28;20069;-82
2021/08/10 06:41:55;;;;;;;7.70;3.50;;;;;;;15.91;90.84;101135.03;4957223;28;20097;-84
2021/08/10 06:44:20;;;;;;;8.35;4.22;;;;;;;15.93;90.44;101132.94;4960896;28;20046;-80
2021/08/10 06:46:46;;;;;;;8.60;4.28;;;;;;;15.93;90.41;101127.53;4956814;28;20042;-80
2021/08/10 06:49:11;;;;;;;8.48;4.55;;;;;;;15.98;89.96;101130.53;4960195;28;20078;-79
2021/08/10 06:51:36;;;;;;;7.93;4.13;;;;;;;16.03;90.04;101127.25;4956549;28;20051;-82
2021/08/10 06:54:03;;;;;;;11.38;4.57;;;;;;;16.09;89.19;101131.06;4958972;28;20054;-82
2021/08/10 06:56:28;;;;;;;8.45;4.28;;;;;;;16.18;89.12;101124.47;4960239;28;20063;-82
2021/08/10 06:58:53;;;;;;;8.98;4.38;;;;;;;16.27;89.50;101122.47;4936594;28;20049;-83
2021/08/10 07:01:19;;;;;;;7.40;3.90;;;;;;;16.32;88.12;101139.00;4956318;28;20134;-84
2021/08/10 07:03:44;;;;;;;9.35;4.57;;;;;;;16.32;88.37;101134.41;4960048;28;20873;-82
2021/08/10 07:06:11;;;;;;;8.30;4.20;;;;;;;16.40;87.90;101144.25;4958987;28;20535;-81
2021/08/10 07:08:37;;;;;;;7.00;4.22;;;;;;;16.44;88.09;101138.28;4963677;28;20130;-81
2021/08/10 07:11:02;;;;;;;8.60;4.15;;;;;;;16.54;88.15;101134.38;4976578;28;20046;-82
2021/08/10 07:13:28;;;;;;;8.35;3.85;;;;;;;16.55;87.82;101146.91;4978603;28;20768;-82
2021/08/10 07:15:53;;;;;;;7.57;4.45;;;;;;;16.58;88.11;101135.69;4979036;28;20533;-82
2021/08/10 07:18:19;;;;;;;9.20;4.45;;;;;;;16.59;87.19;101127.34;4979544;28;20042;-84
2021/08/10 07:20:44;;;;;;;10.25;4.38;;;;;;;16.64;87.98;101134.91;5017456;28;20042;-83
2021/08/10 07:23:09;;;;;;;8.60;3.83;;;;;;;16.69;87.83;101140.59;4985291;28;20046;-84
2021/08/10 07:25:35;;;;;;;8.77;4.40;;;;;;;16.74;87.17;101123.72;4986923;28;20125;-79
2021/08/10 07:28:00;;;;;;;7.82;4.03;;;;;;;16.73;87.58;101128.31;4967379;28;20290;-81
2021/08/10 07:30:25;;;;;;;9.57;4.78;;;;;;;16.76;87.33;101141.50;4981840;28;20652;-82
2021/08/10 07:32:51;;;;;;;10.85;4.90;;;;;;;16.79;87.41;101132.13;4996115;28;20038;-84
2021/08/10 07:35:16;;;;;;;6.75;3.90;;;;;;;16.81;87.89;101136.31;4981077;28;20106;-84
2021/08/10 07:37:42;;;;;;;8.00;4.22;;;;;;;16.89;88.38;101155.16;4991362;28;20052;-83
2021/08/10 07:40:13;;;;;;;8.70;5.13;;;;;;;16.94;87.42;101140.16;4977549;28;20066;-84
2021/08/10 07:42:41;;;;;;;7.82;4.13;;;;;;;16.93;86.69;101150.16;4975312;28;20512;-84
2021/08/10 07:45:07;;;;;;;6.30;4.15;;;;;;;16.96;87.31;101148.94;4978860;28;20073;-83
2021/08/10 07:47:33;;;;;;;7.53;3.95;;;;;;;17.03;87.16;101145.25;4973584;28;20034;-82
2021/08/10 07:50:00;;;;;;;7.60;4.18;;;;;;;17.09;87.10;101143.59;4978487;28;20050;-80
2021/08/10 07:52:26;;;;;;;7.30;4.20;;;;;;;17.14;87.24;101141.13;4981840;28;20684;-86
2021/08/10 07:54:52;;;;;;;8.38;4.00;;;;;;;17.19;86.55;101144.09;4980520;28;20054;-80
2021/08/10 07:57:17;;;;;;;9.23;4.10;;;;;;;17.19;85.80;101133.22;4978792;28;20065;-81
2021/08/10 07:59:43;;;;;;;9.52;3.70;;;;;;;17.19;86.46;101138.66;4998309;28;20042;-83
2021/08/10 08:02:08;;;;;;;8.77;4.28;;;;;;;17.12;86.08;101140.50;4979162;28;20042;-80
2021/08/10 08:04:35;;;;;;;9.80;4.70;;;;;;;17.16;86.46;101138.22;4972865;28;20438;-83
2021/08/10 08:07:04;;;;;;;8.02;4.15;;;;;;;17.16;86.39;101136.34;4984233;28;20395;-83
2021/08/10 08:09:29;;;;;;;8.73;4.25;;;;;;;17.20;86.90;101137.63;4978043;28;20057;-82
2021/08/10 08:11:55;;;;;;;7.05;4.28;;;;;;;17.13;86.36;101128.63;4975628;28;20400;-81
2021/08/10 08:14:21;;;;;;;8.15;3.63;;;;;;;17.17;86.79;101135.31;4982199;28;20060;-85
2021/08/10 08:16:48;;;;;;;6.50;4.10;;;;;;;17.28;87.18;101137.47;4982301;28;20100;-84
2021/08/10 08:19:13;;;;;;;9.20;3.78;;;;;;;17.32;86.74;101133.31;4983886;28;20820;-83
2021/08/10 08:21:39;;;;;;;7.07;3.95;;;;;;;17.34;86.30;101124.97;4983012;28;20046;-81
2021/08/10 08:24:05;;;;;;;7.88;3.92;;;;;;;17.34;86.42;101146.66;4980154;28;20122;-83
2021/08/10 08:26:30;;;;;;;8.32;4.68;;;;;;;17.31;86.22;101141.66;4983553;28;20058;-84
2021/08/10 08:28:57;;;;;;;9.52;4.15;;;;;;;17.33;85.83;101148.56;4964443;28;20133;-81
2021/08/10 08:31:23;;;;;;;9.88;4.47;;;;;;;17.34;86.54;101147.50;5000410;28;20035;-86
2021/08/10 08:33:48;;;;;;;7.70;4.30;;;;;;;17.37;85.83;101140.84;4984466;28;20089;-83
2021/08/10 08:36:14;;;;;;;10.85;4.53;;;;;;;17.44;86.05;101149.03;4988754;28;20094;-86
2021/08/10 08:38:40;;;;;;;7.85;4.13;;;;;;;17.46;85.95;101160.50;4985266;28;20046;-84
2021/08/10 08:41:06;;;;;;;9.90;4.72;;;;;;;17.43;85.76;101147.34;4985864;28;20511;-84
2021/08/10 08:43:32;;;;;;;9.93;4.70;;;;;;;17.57;85.89;101152.63;4976701;28;20119;-83
2021/08/10 08:46:02;;;;;;;9.85;4.78;;;;;;;17.60;85.85;101143.25;4963015;28;20051;-83
2021/08/10 08:48:29;;;;;;;8.43;5.05;;;;;;;17.68;85.45;101150.38;4961363;28;20093;-80
2021/08/10 08:50:56;;;;;;;10.63;4.47;;;;;;;17.65;85.46;101145.38;4963972;28;20043;-81
2021/08/10 08:53:23;;;;;;;11.68;5.60;;;;;;;17.67;84.76;101146.84;4945618;28;20051;-82
2021/08/10 08:55:49;;;;;;;9.57;4.55;;;;;;;17.78;86.55;101161.72;4958455;28;20043;-82
2021/08/10 08:58:15;;;;;;;8.95;4.68;;;;;;;17.81;85.13;101159.47;4960818;28;20046;-86
2021/08/10 09:00:41;;;;;;;8.98;4.43;;;;;;;17.78;85.06;101145.44;4957706;28;20078;-80
2021/08/10 09:03:07;;;;;;;8.88;4.80;;;;;;;17.90;84.50;101145.72;4961273;28;20047;-86
2021/08/10 09:05:34;;;;;;;8.82;4.85;;;;;;;17.90;84.26;101154.69;4972619;28;20048;-79
2021/08/10 09:08:29;;;;;;;9.77;4.90;;;;;;;17.92;83.63;101151.75;4976935;28;20739;-84
2021/08/10 09:11:00;;;;;;;9.32;4.25;;;;;;;17.97;82.86;101149.28;4993907;28;20172;-85
2021/08/10 09:13:26;;;;;;;11.50;4.90;;;;;;;18.16;82.85;101143.06;4982347;28;20195;-83
2021/08/10 09:15:52;;;;;;;6.80;4.07;;;;;;;18.34;83.88;101141.63;4977969;28;20047;-81
2021/08/10 09:18:20;;;;;;;7.95;4.32;;;;;;;18.49;83.00;101144.97;4983100;28;20080;-81
2021/08/10 09:21:05;;;;;;;7.90;4.32;;;;;;;18.63;81.40;101141.22;4983041;28;20109;-81
2021/08/10 09:23:44;;;;;;;8.70;4.50;;;;;;;18.64;79.71;101129.31;4992862;28;20763;-84
2021/08/10 09:26:12;;;;;;;7.47;3.97;;;;;;;18.56;79.08;101134.97;4980079;28;20051;-83
2021/08/10 09:28:38;;;;;;;6.78;3.80;;;;;;;18.56;80.32;101132.25;4996024;28;20759;-80
2021/08/10 09:31:30;;;;;;;8.40;4.45;;;;;;;18.63;80.17;101130.34;4990603;28;20038;-83
2021/08/10 09:34:24;;;;;;;8.13;3.97;;;;;;;18.73;79.73;101127.22;4977679;28;20046;-82
2021/08/10 09:36:52;;;;;;;6.85;3.45;;;;;;;18.82;79.59;101133.31;4980096;28;20053;-79
2021/08/10 09:39:29;;;;;;;7.40;4.30;;;;;;;18.92;78.70;101133.72;4982195;28;20038;-81
2021/08/10 09:42:07;;;;;;;9.80;4.50;;;;;;;18.83;77.96;101137.69;4982373;28;20042;-83
2021/08/10 09:44:33;;;;;;;8.80;4.03;;;;;;;18.82;76.81;101138.75;4981836;28;20061;-81
2021/08/10 09:46:59;;;;;;;8.98;4.05;;;;;;;18.82;76.32;101125.16;4977581;28;20053;-83
2021/08/10 09:49:45;;;;;;;6.90;3.10;;;;;;;18.72;74.86;101155.44;5012319;28;20046;-83
2021/08/10 09:52:40;;;;;;;7.40;3.47;;;;;;;18.66;75.72;101150.84;4978074;28;20046;-83
2021/08/10 09:55:14;;;;;;;6.60;4.10;;;;;;;18.63;76.48;101146.66;4965386;28;20102;-83
2021/08/10 09:57:43;;;;;;;7.45;3.22;;;;;;;18.58;76.08;101143.72;4966077;28;20291;-84
2021/08/10 10:00:10;;;;;;;6.60;3.72;;;;;;;18.51;77.04;101151.06;4970968;28;20042;-84
2021/08/10 10:02:36;;;;;;;7.60;4.10;;;;;;;18.56;78.55;101155.84;4993479;28;20039;-84
2021/08/10 10:05:02;;;;;;;9.63;4.53;;;;;;;18.58;78.51;101142.88;4977446;28;20046;-87
2021/08/10 10:07:27;;;;;;;7.20;4.00;;;;;;;18.52;77.54;101139.13;4982160;28;20100;-85
2021/08/10 10:09:53;;;;;;;8.63;4.07;;;;;;;18.48;77.83;101132.44;4983014;28;20040;-82
2021/08/10 10:12:20;;;;;;;5.88;3.85;;;;;;;18.42;79.27;101136.00;4985256;28;20096;-83
2021/08/10 10:14:46;;;;;;;8.13;4.10;;;;;;;18.44;78.82;101137.47;4982551;28;20391;-81
2021/08/10 10:17:13;;;;;;;8.88;4.32;;;;;;;18.47;78.36;101144.34;4978182;28;20046;-84
2021/08/10 10:19:41;;;;;;;8.23;4.13;;;;;;;18.48;78.54;101148.75;4974443;28;20718;-83
2021/08/10 10:22:14;;;;;;;7.18;3.90;;;;;;;18.50;78.48;101141.22;4978027;28;20068;-83
2021/08/10 10:24:48;;;;;;;9.10;3.88;;;;;;;18.50;78.21;101135.81;4974985;28;20104;-83
2021/08/10 10:27:21;;;;;;;5.72;3.70;;;;;;;18.52;79.15;101138.28;4981577;28;20826;-87
2021/08/10 10:29:48;;;;;;;6.30;4.18;;;;;;;18.66;79.15;101129.94;4982451;28;20050;-81
2021/08/10 10:32:14;;;;;;;7.13;3.40;;;;;;;18.66;77.67;101135.38;4980640;28;20045;-81
2021/08/10 10:34:42;;;;;;;7.45;4.13;;;;;;;18.75;78.33;101129.75;4998815;28;20096;-83
2021/08/10 10:37:09;;;;;;;7.07;3.53;;;;;;;18.78;77.63;101142.91;4998282;28;20052;-81
2021/08/10 10:39:40;;;;;;;7.97;3.60;;;;;;;18.80;77.52;101132.69;4999202;28;20073;-82
2021/08/10 10:42:11;;;;;;;6.97;3.97;;;;;;;18.83;78.17;101134.97;4981785;28;20043;-84
2021/08/10 10:44:46;;;;;;;6.65;3.67;;;;;;;18.83;78.01;101129.53;4976668;28;20371;-83
2021/08/10 10:47:20;;;;;;;7.93;3.63;;;;;;;18.84;79.17;101125.75;4997258;28;20462;-85
2021/08/10 10:49:46;;;;;;;7.82;3.95;;;;;;;18.81;78.63;101123.47;4984172;28;20042;-84
2021/08/10 10:52:16;;;;;;;7.68;4.07;;;;;;;18.82;78.81;101131.44;4982421;28;20143;-83
2021/08/10 10:54:46;;;;;;;6.68;4.20;;;;;;;18.89;79.23;101124.09;4984755;28;20054;-84
2021/08/10 10:57:30;;;;;;;7.80;4.03;;;;;;;18.85;79.08;101114.69;4977741;28;20097;-83
2021/08/10 11:00:05;;;;;;;6.65;3.72;;;;;;;18.82;79.67;101120.56;4977299;28;20054;-82
2021/08/10 11:02:33;;;;;;;6.38;4.03;;;;;;;19.05;79.46;101117.38;4993740;28;20488;-80
2021/08/10 11:05:04;;;;;;;6.40;3.65;;;;;;;19.22;79.48;101112.31;4977060;28;20057;-83
2021/08/10 11:07:57;;;;;;;9.48;4.20;;;;;;;19.27;77.72;101123.38;4994039;28;20046;-81
2021/08/10 11:10:36;;;;;;;6.40;3.60;;;;;;;19.30;77.42;101108.50;4973039;28;20050;-85
2021/08/10 11:13:04;;;;;;;4.20;2.88;;;;;;;19.24;76.10;101109.38;4974357;28;20043;-83
2021/08/10 11:15:45;;;;;;;6.80;2.80;;;;;;;19.21;75.11;101110.63;4977521;28;20058;-82
2021/08/10 11:18:10;;;;;;;5.82;2.90;;;;;;;19.20;75.88;101108.97;4972948;28;20154;-84
2021/08/10 11:20:35;;;;;;;6.88;3.30;;;;;;;19.28;76.14;101099.75;4980568;28;20578;-85
2021/08/10 11:23:26;;;;;;;6.35;3.30;;;;;;;19.40;76.44;101103.47;4975872;28;20042;-87
2021/08/10 11:26:00;;;;;;;5.93;2.92;;;;;;;19.63;74.41;101108.41;4987547;28;20042;-81